Time;durP1;ratioP1;P1;durP2;ratioP2;P2;SDS_P1;SDS_P2;PMS_P1;PMS_P2;Temp;Humidity;BMP_temperature;BMP_pressure;BME280_temperature;BME280_humidity;BME280_pressure;Samples;Min_cycle;Max_cycle;Signal;HPM_P1;HPM_P2
2022/06/02 00:00:07;;;;;;;5.15;4.25;;;;;;;9.58;100.00;102027.94;5025132;28;20057;-65
2022/06/02 00:02:38;;;;;;;8.80;4.45;;;;;;;9.56;100.00;102024.47;5026698;28;20033;-65
2022/06/02 00:05:19;;;;;;;7.22;4.50;;;;;;;9.52;100.00;102024.50;5015489;28;20124;-65
2022/06/02 00:07:47;;;;;;;6.55;4.93;;;;;;;9.47;100.00;102030.81;5032990;28;20025;-66
2022/06/02 00:10:34;;;;;;;8.18;4.88;;;;;;;9.43;100.00;102027.38;5010634;28;20033;-65
2022/06/02 00:13:18;;;;;;;8.07;4.43;;;;;;;9.43;100.00;102029.16;5020865;28;20052;-65
2022/06/02 00:15:52;;;;;;;6.22;4.28;;;;;;;9.42;100.00;102027.41;5015179;28;20045;-65
2022/06/02 00:18:24;;;;;;;7.63;4.70;;;;;;;9.42;100.00;102032.69;5028972;28;20564;-65
2022/06/02 00:21:12;;;;;;;8.35;4.40;;;;;;;9.40;100.00;102026.53;5024243;28;20030;-66
2022/06/02 00:23:50;;;;;;;7.18;4.55;;;;;;;9.38;100.00;102031.88;5021870;28;20029;-66
2022/06/02 00:26:31;;;;;;;6.45;4.10;;;;;;;9.35;100.00;102029.31;5015166;28;20021;-66
2022/06/02 00:29:05;;;;;;;7.40;4.63;;;;;;;9.31;100.00;102039.06;5029703;28;20021;-66
2022/06/02 00:31:45;;;;;;;7.40;4.60;;;;;;;9.27;100.00;102034.75;5026215;28;20495;-66
2022/06/02 00:34:18;;;;;;;6.13;4.70;;;;;;;9.22;100.00;102033.97;5029656;28;20025;-66
2022/06/02 00:37:34;;;;;;;7.63;4.32;;;;;;;9.18;100.00;102037.56;5032652;28;20117;-64
2022/06/02 00:40:02;;;;;;;6.50;4.70;;;;;;;9.14;100.00;102035.88;5004801;28;20087;-64
2022/06/02 00:42:49;;;;;;;7.55;4.80;;;;;;;9.12;100.00;102028.00;5025555;28;20032;-65
2022/06/02 00:45:17;;;;;;;8.68;5.30;;;;;;;9.08;100.00;102031.59;5026488;28;20041;-65
2022/06/02 00:47:45;;;;;;;6.00;4.70;;;;;;;9.04;100.00;102029.94;5021121;28;20033;-65
2022/06/02 00:50:23;;;;;;;8.50;5.25;;;;;;;9.01;100.00;102033.50;5013159;28;20396;-65
2022/06/02 00:53:03;;;;;;;6.32;4.78;;;;;;;8.99;100.00;102035.28;5026641;28;20021;-65
2022/06/02 00:58:48;;;;;;;7.72;5.30;;;;;;;8.94;100.00;102031.88;5022006;28;20100;-65
2022/06/02 01:01:18;;;;;;;6.63;5.00;;;;;;;8.92;100.00;102033.66;5004075;28;20037;-65
2022/06/02 01:03:48;;;;;;;7.43;4.97;;;;;;;8.92;100.00;102038.94;5002156;28;20041;-66
2022/06/02 01:06:20;;;;;;;7.93;4.50;;;;;;;8.97;100.00;102042.34;5029111;28;20427;-66
2022/06/02 01:09:13;;;;;;;8.60;5.32;;;;;;;9.05;100.00;102039.56;5022362;28;20025;-66
2022/06/02 01:11:50;;;;;;;6.82;5.38;;;;;;;9.16;100.00;102042.03;5027634;28;20026;-66
2022/06/02 01:14:34;;;;;;;7.93;6.00;;;;;;;9.24;100.00;102050.66;4998034;28;20026;-66
2022/06/02 01:17:24;;;;;;;8.05;5.85;;;;;;;9.28;100.00;102046.19;5005678;28;20381;-65
2022/06/02 01:19:55;;;;;;;9.30;5.63;;;;;;;9.28;100.00;102056.75;5028603;28;20057;-66
2022/06/02 01:22:30;;;;;;;8.18;5.50;;;;;;;9.23;100.00;102040.97;5013194;28;20487;-65
2022/06/02 01:25:21;;;;;;;7.47;5.07;;;;;;;9.20;100.00;102048.97;5028654;28;20026;-65
2022/06/02 01:28:32;;;;;;;10.35;5.60;;;;;;;9.15;100.00;102056.97;5026382;28;20041;-66
2022/06/02 01:31:14;;;;;;;7.63;5.33;;;;;;;9.10;100.00;102044.78;5022704;28;20057;-66
2022/06/02 01:33:46;;;;;;;9.85;6.22;;;;;;;9.07;100.00;102047.50;5022176;28;20030;-65
2022/06/02 01:36:18;;;;;;;8.25;5.72;;;;;;;9.04;100.00;102042.25;5004987;28;20182;-66
2022/06/02 01:38:52;;;;;;;;;;;;;;;9.05;100.00;102049.28;5011158;28;20512;-66
2022/06/02 01:41:40;;;;;;;7.10;5.40;;;;;;;9.10;100.00;102056.19;5023806;28;19920;-66
2022/06/02 01:44:18;;;;;;;7.88;5.50;;;;;;;9.24;100.00;102063.00;5024699;28;20052;-64
2022/06/02 01:47:01;;;;;;;8.75;6.00;;;;;;;9.40;100.00;102058.28;5028191;28;20145;-66
2022/06/02 01:49:54;;;;;;;7.40;5.15;;;;;;;9.52;100.00;102060.69;5028349;28;20029;-67
2022/06/02 01:52:55;;;;;;;9.70;5.60;;;;;;;9.48;100.00;102056.34;5009674;28;20042;-65
2022/06/02 01:55:48;;;;;;;9.18;5.40;;;;;;;9.39;100.00;102061.84;5008936;28;20034;-65
2022/06/02 01:58:42;;;;;;;9.15;5.57;;;;;;;9.29;100.00;102056.72;5024941;28;20025;-65
2022/06/02 02:01:45;;;;;;;7.95;5.32;;;;;;;9.18;100.00;102054.31;5007258;28;20504;-65
2022/06/02 02:04:35;;;;;;;8.95;5.80;;;;;;;9.10;100.00;102045.63;5016068;28;20030;-65
2022/06/02 02:07:15;;;;;;;8.43;6.10;;;;;;;9.09;100.00;102054.50;5000817;28;20482;-64
2022/06/02 02:09:49;;;;;;;9.25;7.00;;;;;;;9.14;100.00;102051.75;5009817;28;20072;-64
2022/06/02 02:12:54;;;;;;;10.82;6.90;;;;;;;9.22;100.00;102056.88;5011792;28;20026;-64
2022/06/02 02:15:34;;;;;;;9.32;6.55;;;;;;;9.31;100.00;102054.03;5026076;28;20396;-65
2022/06/02 02:18:14;;;;;;;8.93;6.47;;;;;;;9.37;100.00;102051.28;5032517;28;20101;-65
2022/06/02 02:21:18;;;;;;;11.45;7.15;;;;;;;9.48;100.00;102053.72;5011148;28;20029;-65
2022/06/02 02:24:14;;;;;;;9.48;6.65;;;;;;;9.59;100.00;102059.66;5033005;28;20103;-65
2022/06/02 02:27:31;;;;;;;10.52;6.78;;;;;;;9.65;100.00;102059.53;5011955;28;20044;-65
2022/06/02 02:30:08;;;;;;;10.25;7.45;;;;;;;9.71;100.00;102061.16;4954664;28;20043;-65
2022/06/02 02:33:13;;;;;;;8.98;6.90;;;;;;;9.74;100.00;102060.22;5019372;28;20124;-65
2022/06/02 02:35:48;;;;;;;11.93;6.70;;;;;;;9.74;100.00;102058.44;5024445;28;20034;-65
2022/06/02 02:38:37;;;;;;;10.38;7.20;;;;;;;9.73;100.00;102067.31;5029411;28;20080;-65
2022/06/02 02:41:06;;;;;;;8.57;6.57;;;;;;;9.63;100.00;102060.44;5027459;28;20120;-65
2022/06/02 02:43:38;;;;;;;9.43;6.43;;;;;;;9.52;100.00;102056.25;5030892;28;20037;-65
2022/06/02 02:46:16;;;;;;;9.35;6.82;;;;;;;9.43;100.00;102063.53;5030335;28;20025;-65
2022/06/02 02:48:57;;;;;;;9.43;6.90;;;;;;;9.31;100.00;102064.63;5023645;28;20049;-66
2022/06/02 02:52:00;;;;;;;11.63;6.85;;;;;;;9.22;100.00;102068.34;5028296;28;20036;-65
2022/06/02 02:54:38;;;;;;;9.80;6.78;;;;;;;9.16;100.00;102073.72;5027310;28;20109;-65
2022/06/02 02:57:26;;;;;;;11.10;7.15;;;;;;;9.10;100.00;102061.50;5022865;28;20026;-65
2022/06/02 02:59:56;;;;;;;10.30;6.90;;;;;;;9.04;100.00;102063.38;5033364;28;20026;-65
2022/06/02 03:02:47;;;;;;;11.98;7.05;;;;;;;8.97;100.00;102063.50;5020124;28;20037;-66
2022/06/02 03:05:40;;;;;;;10.75;6.57;;;;;;;8.91;100.00;102060.97;5028399;28;20056;-64
2022/06/02 03:08:14;;;;;;;10.13;7.57;;;;;;;8.83;100.00;102066.38;5013266;28;20022;-65
2022/06/02 03:10:43;;;;;;;9.73;7.07;;;;;;;8.76;100.00;102064.78;5004384;28;20077;-65
2022/06/02 03:13:18;;;;;;;13.63;7.60;;;;;;;8.69;100.00;102069.25;5023926;28;20029;-65
2022/06/02 03:16:06;;;;;;;11.68;7.63;;;;;;;8.64;100.00;102071.09;5021779;28;20030;-66
2022/06/02 03:19:29;;;;;;;11.70;7.50;;;;;;;8.59;100.00;102066.81;5019335;28;20511;-65
2022/06/02 03:22:07;;;;;;;11.20;7.30;;;;;;;8.53;100.00;102073.94;4990395;28;20113;-65
2022/06/02 03:24:48;;;;;;;12.40;8.27;;;;;;;8.48;100.00;102067.88;4991853;28;20030;-65
2022/06/02 03:27:22;;;;;;;10.13;7.38;;;;;;;8.45;100.00;102065.25;5015578;28;20508;-65
2022/06/02 03:30:09;;;;;;;13.57;8.27;;;;;;;8.42;100.00;102067.94;5026467;28;20030;-66
2022/06/02 03:32:48;;;;;;;11.77;8.20;;;;;;;8.41;100.00;102074.09;5030425;28;20467;-66
2022/06/02 03:35:26;;;;;;;12.05;8.05;;;;;;;8.42;100.00;102072.34;5012710;28;20478;-66
2022/06/02 03:37:57;;;;;;;11.00;7.75;;;;;;;8.42;100.00;102069.72;5014092;28;20127;-66
2022/06/02 03:40:49;;;;;;;10.73;8.13;;;;;;;8.41;100.00;102081.16;5023953;28;20051;-66
2022/06/02 03:43:23;;;;;;;10.50;7.50;;;;;;;8.41;100.00;102075.88;5011807;28;20379;-65
2022/06/02 03:45:54;;;;;;;10.50;7.47;;;;;;;8.40;100.00;102077.66;5018037;28;20026;-66
2022/06/02 03:48:59;;;;;;;11.05;7.75;;;;;;;8.41;100.00;102084.66;5013752;28;20036;-66
2022/06/02 03:52:06;;;;;;;11.32;7.05;;;;;;;8.40;100.00;102082.06;5029378;28;20025;-66
2022/06/02 03:55:19;;;;;;;11.55;7.60;;;;;;;8.41;100.00;102094.34;5016997;28;20048;-67
2022/06/02 03:57:59;;;;;;;10.40;7.70;;;;;;;8.42;100.00;102088.19;4985146;28;20044;-66
2022/06/02 04:00:43;;;;;;;9.98;7.20;;;;;;;8.43;100.00;102092.56;5023015;28;20041;-66
2022/06/02 04:03:14;;;;;;;9.55;7.65;;;;;;;8.43;100.00;102093.44;5033486;28;20021;-67
2022/06/02 04:05:48;;;;;;;11.20;7.80;;;;;;;8.47;100.00;102092.53;4999653;28;20032;-65
2022/06/02 04:08:29;;;;;;;11.68;8.30;;;;;;;8.51;100.00;102098.63;5031387;28;20132;-66
2022/06/02 04:11:08;;;;;;;12.87;8.97;;;;;;;8.58;100.00;102097.66;5026753;28;20032;-66
2022/06/02 04:13:57;;;;;;;13.75;8.55;;;;;;;8.63;100.00;102090.53;5030267;28;20389;-66
2022/06/02 04:16:22;;;;;;;11.98;8.68;;;;;;;8.70;100.00;102101.84;5023957;28;20132;-65
2022/06/02 04:22:44;;;;;;;14.52;8.95;;;;;;;8.72;100.00;102109.72;4925485;29;20068;-67
2022/06/02 04:25:41;;;;;;;11.20;8.00;;;;;;;8.74;100.00;102116.72;5007346;28;20089;-66
2022/06/02 04:28:46;;;;;;;11.30;8.38;;;;;;;8.77;100.00;102105.25;5020792;28;20049;-65
2022/06/02 04:31:26;;;;;;;11.95;8.70;;;;;;;8.78;100.00;102115.78;5028333;28;20036;-65
2022/06/02 04:34:02;;;;;;;10.95;8.25;;;;;;;8.82;100.00;102109.56;5031174;28;20034;-65
2022/06/02 04:36:37;;;;;;;11.85;8.48;;;;;;;8.87;100.00;102112.13;5027132;28;20120;-66
2022/06/02 04:39:12;;;;;;;11.23;8.57;;;;;;;8.94;100.00;102126.06;5031193;28;20033;-66
2022/06/02 04:41:53;;;;;;;12.38;8.90;;;;;;;8.99;100.00;102127.75;5024531;28;20037;-67
2022/06/02 04:44:51;;;;;;;10.23;8.00;;;;;;;9.13;100.00;102130.16;5007902;28;20026;-66
2022/06/02 04:47:41;;;;;;;12.20;8.63;;;;;;;9.22;100.00;102126.47;4963474;28;20300;-65
2022/06/02 04:50:19;;;;;;;11.57;8.30;;;;;;;9.30;100.00;102136.91;5012251;28;20037;-66
2022/06/02 04:53:15;;;;;;;10.40;8.02;;;;;;;9.36;100.00;102139.44;5029468;28;20029;-66
2022/06/02 04:56:07;;;;;;;11.90;8.18;;;;;;;9.44;100.00;102139.28;5026928;28;20025;-66
2022/06/02 04:58:43;;;;;;;13.57;8.60;;;;;;;9.55;100.00;102139.94;5031160;28;20052;-66
2022/06/02 05:01:33;;;;;;;12.48;9.07;;;;;;;9.65;100.00;102136.22;5007824;28;20029;-65
2022/06/02 05:04:19;;;;;;;12.10;8.23;;;;;;;9.71;100.00;102137.00;5030526;28;20025;-66
2022/06/02 05:07:04;;;;;;;11.88;8.30;;;;;;;9.70;100.00;102146.69;5013393;28;20111;-65
2022/06/02 05:09:45;;;;;;;11.65;9.00;;;;;;;9.76;100.00;102149.22;5027562;28;20435;-66
2022/06/02 05:12:24;;;;;;;11.43;8.52;;;;;;;9.87;100.00;102148.13;5024951;28;20025;-65
2022/06/02 05:15:10;;;;;;;11.20;8.27;;;;;;;9.98;100.00;102147.00;5023577;28;20037;-66
2022/06/02 05:18:15;;;;;;;12.55;8.52;;;;;;;10.09;100.00;102144.13;5013708;28;20055;-65
2022/06/02 05:20:49;;;;;;;9.65;7.70;;;;;;;10.24;100.00;102148.19;4998201;28;20398;-65
2022/06/02 05:23:38;;;;;;;9.85;7.10;;;;;;;10.32;100.00;102159.50;5024049;28;20032;-66
2022/06/02 05:26:09;;;;;;;14.73;7.72;;;;;;;10.41;100.00;102152.28;5028274;28;20061;-66
2022/06/02 05:28:54;;;;;;;10.53;6.80;;;;;;;10.51;100.00;102161.75;5012077;28;20297;-66
2022/06/02 05:31:28;;;;;;;9.98;7.50;;;;;;;10.61;100.00;102162.41;5036963;28;20835;-66
2022/06/02 05:33:58;;;;;;;8.93;6.47;;;;;;;10.74;100.00;102163.88;5029836;28;20040;-66
2022/06/02 05:36:31;;;;;;;8.48;6.78;;;;;;;10.89;100.00;102159.09;5033844;28;20100;-66
2022/06/02 05:39:14;;;;;;;8.82;6.28;;;;;;;11.02;100.00;102159.66;5012331;28;20081;-67
2022/06/02 05:42:03;;;;;;;10.18;7.05;;;;;;;11.13;100.00;102162.91;5008572;28;20023;-66
2022/06/02 05:44:58;;;;;;;10.10;6.60;;;;;;;11.23;100.00;102164.41;5024027;28;20507;-66
2022/06/02 05:47:36;;;;;;;8.40;6.40;;;;;;;11.35;100.00;102163.19;5025147;28;20018;-66
2022/06/02 05:50:36;;;;;;;7.70;6.10;;;;;;;11.51;100.00;102166.31;5031020;28;20060;-66
2022/06/02 05:53:23;;;;;;;8.50;6.65;;;;;;;11.66;100.00;102165.00;5023411;28;20018;-65
2022/06/02 05:56:03;;;;;;;8.50;7.15;;;;;;;11.91;100.00;102170.47;5030361;28;20036;-65
2022/06/02 05:58:47;;;;;;;8.15;6.28;;;;;;;12.21;100.00;102164.34;5031123;28;20025;-61
2022/06/02 06:01:31;;;;;;;8.98;6.20;;;;;;;12.29;100.00;102162.31;5019112;28;20029;-64
2022/06/02 06:04:25;;;;;;;8.60;6.32;;;;;;;12.31;100.00;102167.59;5030913;28;20112;-64
2022/06/02 06:07:01;;;;;;;9.95;6.10;;;;;;;12.24;100.00;102173.09;5012789;28;20116;-65
2022/06/02 06:09:51;;;;;;;6.03;5.07;;;;;;;12.24;100.00;102172.22;5036101;28;20031;-65
2022/06/02 06:12:35;;;;;;;7.28;5.30;;;;;;;12.23;100.00;102179.31;5035829;28;20026;-65
2022/06/02 06:15:33;;;;;;;7.93;5.45;;;;;;;12.33;100.00;102176.34;5030918;28;20078;-67
2022/06/02 06:18:30;;;;;;;8.65;5.97;;;;;;;12.45;100.00;102168.00;5000328;28;20042;-66
2022/06/02 06:21:22;;;;;;;8.57;4.10;;;;;;;12.64;100.00;102170.97;5009278;28;20120;-66
2022/06/02 06:24:04;;;;;;;6.85;4.13;;;;;;;12.94;100.00;102171.75;5021214;28;20062;-65
2022/06/02 06:26:34;;;;;;;;;;;;;;;13.15;99.27;102176.41;5020479;28;20389;-65
2022/06/02 06:29:17;;;;;;;8.40;4.68;;;;;;;13.39;97.40;102174.72;5030162;28;19971;-65
2022/06/02 06:31:57;;;;;;;5.72;4.30;;;;;;;13.52;97.09;102177.81;5028849;28;20033;-66
2022/06/02 06:34:57;;;;;;;5.00;3.72;;;;;;;13.53;93.50;102179.50;5012981;28;20030;-65
2022/06/02 06:37:53;;;;;;;4.88;3.70;;;;;;;13.75;93.31;102182.28;5030027;28;20071;-65
2022/06/02 06:40:40;;;;;;;4.80;3.40;;;;;;;13.79;92.41;102188.38;5034494;28;20090;-66
2022/06/02 06:43:43;;;;;;;4.82;3.47;;;;;;;13.97;89.05;102182.34;5008116;28;20648;-65
2022/06/02 06:46:22;;;;;;;6.57;4.30;;;;;;;14.01;nan;102180.44;5028313;28;20025;-66
2022/06/02 06:49:02;;;;;;;5.78;4.05;;;;;;;14.08;89.94;102180.16;5012173;28;20029;-65
2022/06/02 06:51:36;;;;;;;8.23;4.57;;;;;;;14.22;88.02;102186.72;5013065;28;20018;-65
2022/06/02 06:54:20;;;;;;;7.53;4.57;;;;;;;14.42;88.52;102183.28;5016830;28;20025;-64
2022/06/02 06:56:57;;;;;;;6.25;4.15;;;;;;;14.42;86.15;102199.28;5030208;28;20032;-65
2022/06/02 06:59:35;;;;;;;6.03;4.30;;;;;;;14.28;85.54;102196.28;5030767;28;20116;-65
2022/06/02 07:02:25;;;;;;;6.80;3.90;;;;;;;14.36;86.21;102202.19;5030209;28;20056;-66
2022/06/02 07:04:56;;;;;;;6.82;4.68;;;;;;;14.51;84.91;102203.38;5036142;28;20787;-66
2022/06/02 07:07:35;;;;;;;9.77;6.00;;;;;;;14.64;85.65;102215.34;5033041;28;20025;-67
2022/06/02 07:10:10;;;;;;;6.93;4.82;;;;;;;14.62;82.29;102216.31;5033709;28;20045;-66
2022/06/02 07:13:01;;;;;;;6.97;4.70;;;;;;;14.68;84.30;102208.97;5033941;28;20017;-66
2022/06/02 07:15:33;;;;;;;7.18;5.15;;;;;;;14.82;82.02;102216.41;5033790;28;20034;-66
2022/06/02 07:18:20;;;;;;;7.25;4.82;;;;;;;14.82;82.66;102208.41;5033458;28;20029;-66
2022/06/02 07:20:54;;;;;;;8.25;4.72;;;;;;;14.81;82.04;102213.78;5023040;28;20061;-66
2022/06/02 07:23:38;;;;;;;6.50;5.07;;;;;;;14.78;82.12;102219.25;5012035;28;20029;-65
2022/06/02 07:26:30;;;;;;;5.88;4.97;;;;;;;14.98;80.28;102218.44;5030167;28;20036;-65
2022/06/02 07:29:20;;;;;;;10.38;4.60;;;;;;;14.96;82.54;102221.16;5027367;28;20021;-64
2022/06/02 07:32:04;;;;;;;9.10;5.57;;;;;;;15.01;81.42;102227.19;5031054;28;20493;-65
2022/06/02 07:34:45;;;;;;;7.53;5.10;;;;;;;15.17;83.68;102223.88;5033227;28;20030;-65
2022/06/02 07:37:37;;;;;;;8.50;5.32;;;;;;;15.31;80.79;102234.81;5032881;28;20060;-65
2022/06/02 07:40:02;;;;;;;7.32;4.85;;;;;;;15.31;80.05;102223.28;5040790;28;20030;-65
2022/06/02 07:42:52;;;;;;;7.25;4.25;;;;;;;15.38;80.24;102228.28;5014434;28;20032;-65
2022/06/02 07:45:23;;;;;;;8.32;4.32;;;;;;;15.40;79.30;102236.22;5030751;28;20385;-65
2022/06/02 07:48:26;;;;;;;7.10;4.70;;;;;;;15.37;80.33;102239.00;5031728;28;20071;-64
2022/06/02 07:51:30;;;;;;;9.65;4.25;;;;;;;15.50;78.33;102242.91;5033253;28;20491;-65
2022/06/02 07:54:23;;;;;;;6.03;3.67;;;;;;;15.44;74.65;102236.97;5031491;28;20481;-65
2022/06/02 07:57:15;;;;;;;7.55;3.90;;;;;;;15.34;75.04;102241.81;5032885;28;20108;-66
2022/06/02 07:59:40;;;;;;;4.88;3.55;;;;;;;15.48;76.18;102234.09;5029063;28;20018;-65
2022/06/02 08:02:27;;;;;;;6.45;4.38;;;;;;;15.52;73.28;102241.03;5040541;28;20048;-65
2022/06/02 08:05:11;;;;;;;7.72;4.80;;;;;;;15.52;75.71;102250.84;5030361;28;20026;-65
2022/06/02 08:08:01;;;;;;;8.45;4.97;;;;;;;15.60;75.62;102253.19;5013818;28;20029;-66
2022/06/02 08:11:12;;;;;;;8.63;4.32;;;;;;;15.67;75.30;102257.34;5012486;28;20103;-65
2022/06/02 08:13:50;;;;;;;6.60;4.47;;;;;;;15.71;73.86;102250.91;5028801;28;20026;-65
2022/06/02 08:16:27;;;;;;;6.35;3.83;;;;;;;15.48;71.48;102260.78;5032756;28;20087;-65
2022/06/02 08:18:59;;;;;;;7.85;4.05;;;;;;;15.46;72.13;102248.44;5014393;28;20029;-65
2022/06/02 08:21:53;;;;;;;6.55;4.28;;;;;;;15.49;73.41;102256.34;5014070;28;20037;-65
2022/06/02 08:24:47;;;;;;;5.57;4.43;;;;;;;15.56;70.96;102252.44;5027146;28;20032;-65
2022/06/02 08:27:31;;;;;;;5.03;4.00;;;;;;;15.53;72.85;102252.59;5014743;28;20045;-66
2022/06/02 08:30:12;;;;;;;6.18;3.70;;;;;;;15.56;72.65;102248.00;5031610;28;20026;-66
2022/06/02 08:33:03;;;;;;;8.18;3.75;;;;;;;15.63;73.47;102248.56;5031495;28;20033;-66
2022/06/02 08:35:44;;;;;;;5.75;3.20;;;;;;;15.63;69.52;102250.41;5030853;28;20053;-66
2022/06/02 08:38:10;;;;;;;6.50;3.23;;;;;;;15.57;68.76;102255.06;5030338;28;20052;-66
2022/06/02 08:41:28;;;;;;;6.30;3.33;;;;;;;15.67;70.46;102258.19;5019477;28;20112;-66
2022/06/02 08:44:11;;;;;;;6.28;3.08;;;;;;;15.93;67.73;102260.69;5021980;28;21590;-65
2022/06/02 08:47:11;;;;;;;4.03;3.17;;;;;;;16.02;66.31;102257.59;5024684;28;20037;-66
2022/06/02 08:49:45;;;;;;;5.35;3.40;;;;;;;16.01;65.17;102254.06;5006616;28;20060;-66
2022/06/02 08:52:22;;;;;;;5.03;3.22;;;;;;;16.04;65.89;102269.94;5013111;28;20029;-66
2022/06/02 08:55:07;;;;;;;4.35;3.30;;;;;;;16.06;67.86;102256.50;5014156;28;20429;-66
2022/06/02 08:57:44;;;;;;;6.15;3.00;;;;;;;16.27;66.50;102254.66;5029920;28;20025;-66
2022/06/02 09:00:22;;;;;;;4.82;3.25;;;;;;;16.29;67.82;102258.16;5011105;28;20495;-66
2022/06/02 09:03:05;;;;;;;6.95;4.05;;;;;;;16.24;67.84;102264.63;5030562;28;20076;-66
2022/06/02 09:05:58;;;;;;;3.78;2.92;;;;;;;16.36;69.41;102264.06;5031433;28;20029;-67
2022/06/02 09:08:39;;;;;;;5.90;3.50;;;;;;;16.54;66.03;102271.22;5000682;28;20342;-66
2022/06/02 09:11:14;;;;;;;7.17;3.90;;;;;;;16.63;65.50;102269.91;5031493;28;20075;-66
2022/06/02 09:14:01;;;;;;;6.47;3.70;;;;;;;16.73;62.74;102266.78;5030002;28;20397;-65
2022/06/02 09:16:39;;;;;;;7.32;3.85;;;;;;;16.65;64.86;102275.19;5031715;28;20033;-65
2022/06/02 09:19:35;;;;;;;8.15;4.38;;;;;;;16.84;65.79;102277.84;5031524;28;20579;-64
2022/06/02 09:22:09;;;;;;;6.72;4.10;;;;;;;18.25;60.95;102271.59;5036136;28;20025;-63
2022/06/02 09:24:43;;;;;;;5.53;3.83;;;;;;;19.98;54.35;102272.38;5013631;28;20049;-64
2022/06/02 09:27:45;;;;;;;5.45;3.33;;;;;;;21.67;46.51;102264.13;5031531;28;20033;-64
2022/06/02 09:30:32;;;;;;;6.22;3.47;;;;;;;22.25;44.17;102263.66;5029725;28;20108;-66
2022/06/02 09:33:33;;;;;;;5.30;3.50;;;;;;;22.44;40.77;102256.97;5028857;28;20479;-64
2022/06/02 09:36:19;;;;;;;7.07;3.30;;;;;;;22.26;42.00;102268.09;5025468;28;20481;-65
2022/06/02 09:39:06;;;;;;;5.80;3.50;;;;;;;21.72;42.16;102266.50;5030001;28;20485;-66
2022/06/02 09:42:02;;;;;;;6.30;3.60;;;;;;;20.31;43.99;102283.81;5013193;28;20025;-66
2022/06/02 09:44:52;;;;;;;5.38;4.00;;;;;;;19.49;47.17;102276.19;5009782;28;20477;-65
2022/06/02 09:47:57;;;;;;;6.25;3.90;;;;;;;18.87;52.37;102270.84;5013245;28;20369;-66
2022/06/02 09:50:46;;;;;;;7.50;4.25;;;;;;;18.87;54.99;102267.31;5031321;28;20087;-66
2022/06/02 09:53:21;;;;;;;5.50;3.75;;;;;;;18.24;53.54;102275.22;5031115;28;20028;-66
2022/06/02 09:55:55;;;;;;;6.57;3.90;;;;;;;18.26;57.95;102264.41;5029905;28;20021;-65
2022/06/02 09:58:32;;;;;;;6.53;3.90;;;;;;;18.37;52.36;102271.88;5020221;28;20525;-64
2022/06/02 10:01:11;;;;;;;6.82;3.95;;;;;;;18.13;53.01;102262.41;5008733;28;20025;-65
2022/06/02 10:03:55;;;;;;;6.93;4.20;;;;;;;18.02;53.20;102260.28;5028799;28;20079;-65
2022/06/02 10:06:41;;;;;;;4.95;3.75;;;;;;;18.62;53.64;102263.31;5029411;28;20029;-65
2022/06/02 10:09:34;;;;;;;5.78;4.03;;;;;;;19.45;49.30;102257.66;5026266;28;20030;-64
2022/06/02 10:15:20;;;;;;;5.47;3.22;;;;;;;19.15;51.54;102254.00;5021889;28;20340;-66
2022/06/02 10:17:48;;;;;;;5.05;3.33;;;;;;;19.06;51.76;102265.31;5037262;28;20033;-67
2022/06/02 10:20:43;;;;;;;5.93;3.88;;;;;;;18.99;50.78;102261.25;5024728;28;20037;-65
2022/06/02 10:23:34;;;;;;;5.38;3.53;;;;;;;19.63;49.41;102244.97;5011397;28;20049;-66
2022/06/02 10:26:18;;;;;;;;;;;;;;;20.12;48.10;102244.63;5025104;28;20112;-65
2022/06/02 10:29:23;;;;;;;4.30;3.40;;;;;;;20.04;49.57;102244.25;5002731;28;19920;-65
2022/06/02 10:32:01;;;;;;;6.65;3.80;;;;;;;20.42;46.73;102245.44;5030893;28;20022;-65
2022/06/02 10:35:13;;;;;;;6.70;3.50;;;;;;;21.04;45.82;102234.22;5036235;28;20032;-65
2022/06/02 10:38:01;;;;;;;5.57;3.20;;;;;;;21.86;39.96;102228.63;4975226;28;20418;-66
2022/06/02 10:40:40;;;;;;;5.82;3.33;;;;;;;21.91;41.51;102229.19;5033328;28;20036;-66
2022/06/02 10:43:11;;;;;;;6.05;3.83;;;;;;;22.31;38.43;102238.94;5043101;28;20078;-66
2022/06/02 10:45:36;;;;;;;;;;;;;;;22.65;42.80;102227.50;5038069;28;20016;-65
2022/06/02 10:48:46;;;;;;;5.20;3.10;;;;;;;23.80;36.33;102235.91;5033679;28;20301;-65
2022/06/02 10:51:29;;;;;;;5.10;3.03;;;;;;;24.20;36.54;102230.88;5034734;28;20021;-66
2022/06/02 10:54:13;;;;;;;5.35;3.08;;;;;;;24.07;34.42;102223.88;5034219;28;20048;-65
2022/06/02 10:57:18;;;;;;;3.58;2.60;;;;;;;23.62;34.45;102230.09;5015818;28;20116;-65
2022/06/02 10:59:43;;;;;;;7.57;2.80;;;;;;;23.68;34.22;102222.41;5025152;28;20057;-65
2022/06/02 11:02:47;;;;;;;3.83;2.80;;;;;;;23.36;34.83;102222.19;5016551;28;20113;-65
2022/06/02 11:05:50;;;;;;;3.58;2.30;;;;;;;23.14;32.93;102225.66;5034050;28;20473;-65
2022/06/02 11:08:42;;;;;;;3.92;2.10;;;;;;;23.26;33.87;102218.47;5036803;28;20025;-65
2022/06/02 11:11:35;;;;;;;4.40;2.50;;;;;;;23.74;34.89;102218.31;5001927;28;20070;-65
2022/06/02 11:14:22;;;;;;;3.97;2.80;;;;;;;23.98;31.22;102218.25;5028391;28;20026;-65
2022/06/02 11:17:00;;;;;;;4.70;2.80;;;;;;;23.85;31.88;102220.16;5033814;28;20068;-65
2022/06/02 11:19:35;;;;;;;3.58;2.17;;;;;;;24.08;32.38;102223.78;5033684;28;20104;-65
2022/06/02 11:22:24;;;;;;;4.80;2.85;;;;;;;23.67;32.78;102215.25;5031646;28;20033;-65
2022/06/02 11:24:55;;;;;;;3.15;2.20;;;;;;;24.36;34.80;102219.69;5015777;28;20029;-65
2022/06/02 11:27:51;;;;;;;4.03;2.80;;;;;;;25.45;31.91;102222.38;5033216;28;20048;-65
2022/06/02 11:30:33;;;;;;;3.83;2.83;;;;;;;25.48;31.35;102221.25;5033233;28;20038;-65
2022/06/02 11:33:14;;;;;;;3.95;2.63;;;;;;;25.63;29.85;102214.50;5014995;28;20039;-65
2022/06/02 11:36:17;;;;;;;3.30;2.50;;;;;;;25.66;30.99;102216.06;5015675;28;20037;-65
2022/06/02 11:39:00;;;;;;;5.03;3.13;;;;;;;24.57;31.40;102215.34;5033429;28;20069;-65
2022/06/02 11:41:52;;;;;;;3.33;2.33;;;;;;;24.21;33.29;102221.78;5033353;28;20044;-64
2022/06/02 11:44:29;;;;;;;3.55;2.42;;;;;;;23.12;34.39;102220.38;5033632;28;20028;-65
2022/06/02 11:47:23;;;;;;;4.45;2.42;;;;;;;23.32;34.89;102210.75;5014623;28;20124;-65
2022/06/02 11:50:17;;;;;;;2.72;2.45;;;;;;;24.27;33.37;102211.44;5039326;28;20021;-65
2022/06/02 11:52:52;;;;;;;4.18;3.22;;;;;;;24.17;33.09;102206.78;5019268;28;20116;-66
2022/06/02 11:55:21;;;;;;;3.10;2.70;;;;;;;23.77;35.41;102209.97;5023240;28;20378;-66
2022/06/02 11:58:24;;;;;;;3.25;2.70;;;;;;;24.01;32.23;102200.91;5030977;28;20028;-65
2022/06/02 12:01:21;;;;;;;5.78;3.00;;;;;;;24.39;34.09;102199.63;5027771;28;20021;-65
2022/06/02 12:04:12;;;;;;;5.07;2.60;;;;;;;24.10;34.49;102202.84;5032236;28;20039;-65
2022/06/02 12:06:57;;;;;;;;;;;;;;;23.21;35.42;102199.91;5024653;28;20095;-65
2022/06/02 12:09:43;;;;;;;5.60;2.95;;;;;;;22.61;38.16;102191.81;5027697;28;19919;-65
2022/06/02 12:12:29;;;;;;;5.47;2.50;;;;;;;22.26;36.77;102197.94;5029793;28;20040;-65
2022/06/02 12:14:59;;;;;;;4.63;2.50;;;;;;;21.77;36.92;102194.25;5016687;28;20603;-65
2022/06/02 12:17:46;;;;;;;3.40;2.55;;;;;;;22.06;37.27;102194.84;5016280;28;20113;-65
2022/06/02 12:20:49;;;;;;;5.82;3.50;;;;;;;23.22;38.06;102191.72;5032837;28;20036;-66
2022/06/02 12:23:29;;;;;;;4.90;3.20;;;;;;;24.58;31.70;102189.97;5032533;28;20095;-67
2022/06/02 12:26:05;;;;;;;7.05;3.33;;;;;;;25.12;32.26;102185.47;5020505;28;20080;-65
2022/06/02 12:29:20;;;;;;;4.38;2.80;;;;;;;25.63;32.04;102187.38;5014626;28;20121;-66
2022/06/02 12:32:15;;;;;;;3.83;2.72;;;;;;;25.37;33.52;102178.78;4999325;28;20052;-65
2022/06/02 12:34:47;;;;;;;5.22;3.25;;;;;;;24.94;34.51;102179.78;5003976;28;20120;-65
2022/06/02 12:37:21;;;;;;;4.00;3.30;;;;;;;24.60;33.53;102183.44;5014341;28;20025;-65
2022/06/02 12:40:07;;;;;;;5.25;3.22;;;;;;;24.90;34.28;102175.59;5032246;28;20029;-66
2022/06/02 12:42:45;;;;;;;7.00;3.50;;;;;;;24.49;32.41;102180.75;5032347;28;20400;-65
2022/06/02 12:45:13;;;;;;;6.70;3.40;;;;;;;25.56;32.62;102174.47;5032702;28;20028;-65
2022/06/02 12:48:18;;;;;;;4.07;2.95;;;;;;;26.22;31.43;102174.03;5028172;28;20489;-66
2022/06/02 12:50:51;;;;;;;7.15;4.28;;;;;;;25.72;31.16;102168.53;4983941;28;20079;-67
2022/06/02 12:53:39;;;;;;;5.25;4.15;;;;;;;25.46;32.39;102169.88;5031863;28;20021;-65